sensor_id;sensor_type;location;lat;lon;timestamp;temperature;humidity
262;DHT22;114;48.260;10.988;2023-08-07T00:00:42;11.10;45.60
262;DHT22;114;48.260;10.988;2023-08-07T00:03:08;11.10;50.00
262;DHT22;114;48.260;10.988;2023-08-07T00:05:34;11.00;55.60
262;DHT22;114;48.260;10.988;2023-08-07T00:08:00;10.90;59.10
262;DHT22;114;48.260;10.988;2023-08-07T00:10:26;10.90;60.90
262;DHT22;114;48.260;10.988;2023-08-07T00:12:52;10.90;59.20
262;DHT22;114;48.260;10.988;2023-08-07T00:15:17;10.80;63.20
262;DHT22;114;48.260;10.988;2023-08-07T00:17:43;10.80;65.00
262;DHT22;114;48.260;10.988;2023-08-07T00:20:09;10.80;69.30
262;DHT22;114;48.260;10.988;2023-08-07T00:22:35;10.70;71.60
262;DHT22;114;48.260;10.988;2023-08-07T00:25:01;10.70;73.30
262;DHT22;114;48.260;10.988;2023-08-07T00:27:26;10.70;72.10
262;DHT22;114;48.260;10.988;2023-08-07T00:29:52;10.70;74.60
262;DHT22;114;48.260;10.988;2023-08-07T00:32:18;10.70;76.30
262;DHT22;114;48.260;10.988;2023-08-07T00:34:44;10.60;78.20
262;DHT22;114;48.260;10.988;2023-08-07T00:37:09;10.60;77.10
262;DHT22;114;48.260;10.988;2023-08-07T00:39:35;10.60;78.10
262;DHT22;114;48.260;10.988;2023-08-07T00:42:01;10.60;77.60
262;DHT22;114;48.260;10.988;2023-08-07T00:44:27;10.60;78.80
262;DHT22;114;48.260;10.988;2023-08-07T00:46:54;10.60;79.20
262;DHT22;114;48.260;10.988;2023-08-07T00:49:20;10.60;79.00
262;DHT22;114;48.260;10.988;2023-08-07T00:51:47;10.60;81.30
262;DHT22;114;48.260;10.988;2023-08-07T00:54:15;10.60;82.00
262;DHT22;114;48.260;10.988;2023-08-07T00:56:41;10.50;81.90
262;DHT22;114;48.260;10.988;2023-08-07T00:59:07;10.50;85.20
262;DHT22;114;48.260;10.988;2023-08-07T01:01:33;10.50;85.10
262;DHT22;114;48.260;10.988;2023-08-07T01:03:59;10.50;86.10
262;DHT22;114;48.260;10.988;2023-08-07T01:06:24;10.50;85.00
262;DHT22;114;48.260;10.988;2023-08-07T01:08:50;10.40;87.90
262;DHT22;114;48.260;10.988;2023-08-07T01:19:26;10.50;81.00
262;DHT22;114;48.260;10.988;2023-08-07T01:22:12;10.40;80.60
262;DHT22;114;48.260;10.988;2023-08-07T01:24:41;10.40;82.20
262;DHT22;114;48.260;10.988;2023-08-07T01:32:29;10.40;78.70
262;DHT22;114;48.260;10.988;2023-08-07T01:34:58;10.40;76.40
262;DHT22;114;48.260;10.988;2023-08-07T01:37:29;10.40;75.80
262;DHT22;114;48.260;10.988;2023-08-07T01:39:58;10.40;78.00
262;DHT22;114;48.260;10.988;2023-08-07T01:42:26;10.40;77.70
262;DHT22;114;48.260;10.988;2023-08-07T01:44:52;10.40;79.10
262;DHT22;114;48.260;10.988;2023-08-07T01:47:18;10.40;77.50
262;DHT22;114;48.260;10.988;2023-08-07T01:49:43;10.50;75.70
262;DHT22;114;48.260;10.988;2023-08-07T01:52:11;10.50;76.00
262;DHT22;114;48.260;10.988;2023-08-07T01:54:37;10.50;74.60
262;DHT22;114;48.260;10.988;2023-08-07T01:57:04;10.50;74.80
262;DHT22;114;48.260;10.988;2023-08-07T01:59:29;10.50;72.70
262;DHT22;114;48.260;10.988;2023-08-07T02:01:55;10.50;73.30
262;DHT22;114;48.260;10.988;2023-08-07T02:04:21;10.60;71.10
262;DHT22;114;48.260;10.988;2023-08-07T02:06:47;10.50;70.20
262;DHT22;114;48.260;10.988;2023-08-07T02:09:12;10.50;70.00
262;DHT22;114;48.260;10.988;2023-08-07T02:11:38;10.50;70.00
262;DHT22;114;48.260;10.988;2023-08-07T02:14:04;10.50;67.60
262;DHT22;114;48.260;10.988;2023-08-07T02:16:29;10.50;65.40
262;DHT22;114;48.260;10.988;2023-08-07T02:18:55;10.50;67.90
262;DHT22;114;48.260;10.988;2023-08-07T02:21:21;10.60;64.60
262;DHT22;114;48.260;10.988;2023-08-07T02:23:47;10.50;65.60
262;DHT22;114;48.260;10.988;2023-08-07T02:26:13;10.50;63.90
262;DHT22;114;48.260;10.988;2023-08-07T02:28:39;10.60;63.70
262;DHT22;114;48.260;10.988;2023-08-07T02:31:04;10.60;62.00
262;DHT22;114;48.260;10.988;2023-08-07T02:33:30;10.50;62.70
262;DHT22;114;48.260;10.988;2023-08-07T02:35:56;10.60;62.80
262;DHT22;114;48.260;10.988;2023-08-07T02:38:22;10.60;60.80
262;DHT22;114;48.260;10.988;2023-08-07T02:40:48;10.60;60.10
262;DHT22;114;48.260;10.988;2023-08-07T02:43:13;10.60;59.30
262;DHT22;114;48.260;10.988;2023-08-07T02:45:39;10.60;58.60
262;DHT22;114;48.260;10.988;2023-08-07T02:48:05;10.60;57.60
262;DHT22;114;48.260;10.988;2023-08-07T02:50:31;10.60;55.40
262;DHT22;114;48.260;10.988;2023-08-07T02:52:58;10.70;55.00
262;DHT22;114;48.260;10.988;2023-08-07T02:55:24;10.70;53.30
262;DHT22;114;48.260;10.988;2023-08-07T02:57:50;10.70;52.90
262;DHT22;114;48.260;10.988;2023-08-07T03:00:16;10.70;51.30
262;DHT22;114;48.260;10.988;2023-08-07T03:02:42;10.70;53.00
262;DHT22;114;48.260;10.988;2023-08-07T03:05:08;10.70;53.60
262;DHT22;114;48.260;10.988;2023-08-07T03:07:34;10.70;50.10
262;DHT22;114;48.260;10.988;2023-08-07T03:10:00;10.70;46.80
262;DHT22;114;48.260;10.988;2023-08-07T03:12:25;10.80;47.00
262;DHT22;114;48.260;10.988;2023-08-07T03:14:51;10.80;47.60
262;DHT22;114;48.260;10.988;2023-08-07T03:17:17;10.80;44.30
262;DHT22;114;48.260;10.988;2023-08-07T03:19:43;10.90;43.00
262;DHT22;114;48.260;10.988;2023-08-07T03:22:09;10.90;44.20
262;DHT22;114;48.260;10.988;2023-08-07T03:24:35;10.80;43.80
262;DHT22;114;48.260;10.988;2023-08-07T03:27:00;10.80;44.60
262;DHT22;114;48.260;10.988;2023-08-07T03:29:26;10.90;41.70
262;DHT22;114;48.260;10.988;2023-08-07T03:31:52;10.80;42.00
262;DHT22;114;48.260;10.988;2023-08-07T03:34:18;10.90;41.80
262;DHT22;114;48.260;10.988;2023-08-07T03:36:44;10.80;43.00
262;DHT22;114;48.260;10.988;2023-08-07T03:39:10;10.90;44.10
262;DHT22;114;48.260;10.988;2023-08-07T03:41:37;10.70;42.90
262;DHT22;114;48.260;10.988;2023-08-07T03:44:03;10.80;44.50
262;DHT22;114;48.260;10.988;2023-08-07T03:46:29;10.80;42.50
262;DHT22;114;48.260;10.988;2023-08-07T03:48:55;10.90;38.60
262;DHT22;114;48.260;10.988;2023-08-07T03:51:20;10.80;41.10
262;DHT22;114;48.260;10.988;2023-08-07T03:53:46;10.80;37.30
262;DHT22;114;48.260;10.988;2023-08-07T03:56:12;10.90;37.30
262;DHT22;114;48.260;10.988;2023-08-07T03:58:38;10.80;35.00
262;DHT22;114;48.260;10.988;2023-08-07T04:01:04;10.80;37.10
262;DHT22;114;48.260;10.988;2023-08-07T04:03:30;10.80;34.70
262;DHT22;114;48.260;10.988;2023-08-07T04:05:56;10.90;37.10
262;DHT22;114;48.260;10.988;2023-08-07T04:08:22;10.80;34.10
262;DHT22;114;48.260;10.988;2023-08-07T04:11:04;10.90;32.30
262;DHT22;114;48.260;10.988;2023-08-07T04:13:31;10.80;32.20
262;DHT22;114;48.260;10.988;2023-08-07T04:15:57;10.90;29.90
262;DHT22;114;48.260;10.988;2023-08-07T04:18:23;10.90;28.10
262;DHT22;114;48.260;10.988;2023-08-07T04:20:53;10.90;28.90
262;DHT22;114;48.260;10.988;2023-08-07T04:23:19;10.90;29.60
262;DHT22;114;48.260;10.988;2023-08-07T04:25:47;10.80;30.60
262;DHT22;114;48.260;10.988;2023-08-07T04:28:13;10.80;30.10
262;DHT22;114;48.260;10.988;2023-08-07T04:30:40;10.90;30.70
262;DHT22;114;48.260;10.988;2023-08-07T04:33:05;10.90;27.40
262;DHT22;114;48.260;10.988;2023-08-07T04:35:31;10.90;28.00
262;DHT22;114;48.260;10.988;2023-08-07T04:37:57;10.90;28.10
262;DHT22;114;48.260;10.988;2023-08-07T04:40:22;10.90;26.50
262;DHT22;114;48.260;10.988;2023-08-07T04:42:51;11.00;28.00
262;DHT22;114;48.260;10.988;2023-08-07T04:45:17;10.90;28.90
262;DHT22;114;48.260;10.988;2023-08-07T04:47:42;10.90;28.10
262;DHT22;114;48.260;10.988;2023-08-07T04:50:08;10.90;28.10
262;DHT22;114;48.260;10.988;2023-08-07T04:52:34;10.90;28.80
262;DHT22;114;48.260;10.988;2023-08-07T04:55:00;10.90;27.80
262;DHT22;114;48.260;10.988;2023-08-07T04:57:26;10.90;28.00
262;DHT22;114;48.260;10.988;2023-08-07T04:59:52;11.00;25.70
262;DHT22;114;48.260;10.988;2023-08-07T05:02:18;10.90;26.90
262;DHT22;114;48.260;10.988;2023-08-07T05:04:45;10.90;26.70
262;DHT22;114;48.260;10.988;2023-08-07T05:07:11;10.90;28.70
262;DHT22;114;48.260;10.988;2023-08-07T05:09:38;10.90;27.80
262;DHT22;114;48.260;10.988;2023-08-07T05:12:04;10.80;28.00
262;DHT22;114;48.260;10.988;2023-08-07T05:14:30;10.90;27.40
262;DHT22;114;48.260;10.988;2023-08-07T05:16:56;10.90;27.70
262;DHT22;114;48.260;10.988;2023-08-07T05:19:22;10.80;29.60
262;DHT22;114;48.260;10.988;2023-08-07T05:21:48;10.80;28.80
262;DHT22;114;48.260;10.988;2023-08-07T05:24:17;10.90;29.30
262;DHT22;114;48.260;10.988;2023-08-07T05:26:43;10.90;28.80
262;DHT22;114;48.260;10.988;2023-08-07T05:29:09;10.90;28.60
262;DHT22;114;48.260;10.988;2023-08-07T05:31:35;10.90;28.60
262;DHT22;114;48.260;10.988;2023-08-07T05:34:01;11.00;28.20
262;DHT22;114;48.260;10.988;2023-08-07T05:36:27;11.10;28.20
262;DHT22;114;48.260;10.988;2023-08-07T05:38:55;11.10;28.20
262;DHT22;114;48.260;10.988;2023-08-07T05:41:20;11.20;24.90
262;DHT22;114;48.260;10.988;2023-08-07T05:43:46;11.20;24.30
262;DHT22;114;48.260;10.988;2023-08-07T05:46:13;11.30;21.30
262;DHT22;114;48.260;10.988;2023-08-07T05:48:38;11.40;21.60
262;DHT22;114;48.260;10.988;2023-08-07T05:51:04;11.40;21.90
262;DHT22;114;48.260;10.988;2023-08-07T05:53:30;11.50;22.00
262;DHT22;114;48.260;10.988;2023-08-07T05:55:55;11.50;20.10
262;DHT22;114;48.260;10.988;2023-08-07T05:58:21;11.50;21.50
262;DHT22;114;48.260;10.988;2023-08-07T06:00:47;11.50;18.30
262;DHT22;114;48.260;10.988;2023-08-07T06:03:13;11.50;20.10
262;DHT22;114;48.260;10.988;2023-08-07T06:05:39;11.50;19.10
262;DHT22;114;48.260;10.988;2023-08-07T06:08:05;11.50;19.60
262;DHT22;114;48.260;10.988;2023-08-07T06:10:30;11.40;19.30
262;DHT22;114;48.260;10.988;2023-08-07T06:12:56;11.40;20.20
262;DHT22;114;48.260;10.988;2023-08-07T06:15:22;11.50;17.50
262;DHT22;114;48.260;10.988;2023-08-07T06:17:47;11.70;16.70
262;DHT22;114;48.260;10.988;2023-08-07T06:20:13;11.70;13.20
262;DHT22;114;48.260;10.988;2023-08-07T06:22:41;11.80;13.60
262;DHT22;114;48.260;10.988;2023-08-07T06:25:07;12.00;13.00
262;DHT22;114;48.260;10.988;2023-08-07T06:27:34;12.20;11.40
262;DHT22;114;48.260;10.988;2023-08-07T06:29:59;12.20;8.60
262;DHT22;114;48.260;10.988;2023-08-07T06:32:26;12.20;7.80
262;DHT22;114;48.260;10.988;2023-08-07T06:34:52;12.40;8.70
262;DHT22;114;48.260;10.988;2023-08-07T06:37:18;12.40;7.70
262;DHT22;114;48.260;10.988;2023-08-07T06:39:44;12.40;8.30
262;DHT22;114;48.260;10.988;2023-08-07T06:42:11;12.40;6.70
262;DHT22;114;48.260;10.988;2023-08-07T06:44:37;12.50;4.50
262;DHT22;114;48.260;10.988;2023-08-07T06:47:03;12.50;7.30
262;DHT22;114;48.260;10.988;2023-08-07T06:49:29;12.70;6.60
262;DHT22;114;48.260;10.988;2023-08-07T06:51:57;12.70;4.70
262;DHT22;114;48.260;10.988;2023-08-07T06:54:23;12.70;3.80
262;DHT22;114;48.260;10.988;2023-08-07T06:56:48;13.00;3.30
262;DHT22;114;48.260;10.988;2023-08-07T06:59:14;13.10;1.80
262;DHT22;114;48.260;10.988;2023-08-07T07:01:40;13.00;1.00
262;DHT22;114;48.260;10.988;2023-08-07T07:04:05;13.30;1.00
262;DHT22;114;48.260;10.988;2023-08-07T07:06:31;13.30;1.00
262;DHT22;114;48.260;10.988;2023-08-07T07:08:57;13.20;1.00
262;DHT22;114;48.260;10.988;2023-08-07T07:11:22;13.10;1.00
262;DHT22;114;48.260;10.988;2023-08-07T07:13:50;13.40;1.00
262;DHT22;114;48.260;10.988;2023-08-07T07:16:18;13.50;1.00
262;DHT22;114;48.260;10.988;2023-08-07T07:18:44;13.50;1.00
262;DHT22;114;48.260;10.988;2023-08-07T07:21:09;13.70;1.00
262;DHT22;114;48.260;10.988;2023-08-07T07:23:35;13.80;1.00
262;DHT22;114;48.260;10.988;2023-08-07T07:26:01;13.90;1.00
262;DHT22;114;48.260;10.988;2023-08-07T07:28:27;14.10;1.00
262;DHT22;114;48.260;10.988;2023-08-07T07:30:56;14.10;1.00
262;DHT22;114;48.260;10.988;2023-08-07T07:33:21;14.00;1.00
262;DHT22;114;48.260;10.988;2023-08-07T07:35:47;14.10;1.00
262;DHT22;114;48.260;10.988;2023-08-07T07:38:13;14.10;1.00
262;DHT22;114;48.260;10.988;2023-08-07T07:40:39;13.80;1.00
262;DHT22;114;48.260;10.988;2023-08-07T07:43:05;13.60;1.00
262;DHT22;114;48.260;10.988;2023-08-07T07:45:30;13.80;1.00
262;DHT22;114;48.260;10.988;2023-08-07T07:47:56;13.80;1.00
262;DHT22;114;48.260;10.988;2023-08-07T07:50:22;13.70;1.00
262;DHT22;114;48.260;10.988;2023-08-07T07:52:47;13.60;1.00
262;DHT22;114;48.260;10.988;2023-08-07T07:55:13;13.80;1.00
262;DHT22;114;48.260;10.988;2023-08-07T07:57:39;13.80;1.00
262;DHT22;114;48.260;10.988;2023-08-07T08:00:07;13.60;1.00
262;DHT22;114;48.260;10.988;2023-08-07T08:02:36;13.80;1.00
262;DHT22;114;48.260;10.988;2023-08-07T08:05:02;13.80;1.00
262;DHT22;114;48.260;10.988;2023-08-07T08:07:28;13.90;1.00
262;DHT22;114;48.260;10.988;2023-08-07T08:09:53;13.80;1.00
262;DHT22;114;48.260;10.988;2023-08-07T08:12:21;13.80;1.00
262;DHT22;114;48.260;10.988;2023-08-07T08:14:47;13.90;1.00
262;DHT22;114;48.260;10.988;2023-08-07T08:17:13;13.80;1.00
262;DHT22;114;48.260;10.988;2023-08-07T08:19:39;14.00;1.00
262;DHT22;114;48.260;10.988;2023-08-07T08:22:05;14.00;1.00
262;DHT22;114;48.260;10.988;2023-08-07T08:24:31;14.20;1.00
262;DHT22;114;48.260;10.988;2023-08-07T08:26:57;14.30;1.00
262;DHT22;114;48.260;10.988;2023-08-07T08:29:23;14.30;1.00
262;DHT22;114;48.260;10.988;2023-08-07T08:31:49;14.20;1.00
262;DHT22;114;48.260;10.988;2023-08-07T08:34:14;13.90;1.00
262;DHT22;114;48.260;10.988;2023-08-07T08:36:40;13.80;1.00
262;DHT22;114;48.260;10.988;2023-08-07T08:39:06;13.70;1.00
262;DHT22;114;48.260;10.988;2023-08-07T08:41:31;13.60;1.00
262;DHT22;114;48.260;10.988;2023-08-07T08:43:57;13.60;1.00
262;DHT22;114;48.260;10.988;2023-08-07T08:46:28;13.60;1.00
262;DHT22;114;48.260;10.988;2023-08-07T08:48:57;13.60;1.00
262;DHT22;114;48.260;10.988;2023-08-07T08:51:24;13.70;1.00
262;DHT22;114;48.260;10.988;2023-08-07T08:53:52;13.90;1.00
262;DHT22;114;48.260;10.988;2023-08-07T08:56:19;14.20;1.00
262;DHT22;114;48.260;10.988;2023-08-07T08:58:48;14.40;1.00
262;DHT22;114;48.260;10.988;2023-08-07T09:01:14;14.40;1.00
262;DHT22;114;48.260;10.988;2023-08-07T09:03:40;14.60;1.00
262;DHT22;114;48.260;10.988;2023-08-07T09:06:06;14.60;1.00
262;DHT22;114;48.260;10.988;2023-08-07T09:08:32;14.90;1.00
262;DHT22;114;48.260;10.988;2023-08-07T09:11:00;14.80;1.00
262;DHT22;114;48.260;10.988;2023-08-07T09:13:28;14.80;1.00
262;DHT22;114;48.260;10.988;2023-08-07T09:15:55;14.90;1.00
262;DHT22;114;48.260;10.988;2023-08-07T09:18:21;14.60;1.00
262;DHT22;114;48.260;10.988;2023-08-07T09:20:49;14.70;1.00
262;DHT22;114;48.260;10.988;2023-08-07T09:23:16;14.80;1.00
262;DHT22;114;48.260;10.988;2023-08-07T09:25:44;14.70;1.00
262;DHT22;114;48.260;10.988;2023-08-07T09:28:11;14.60;1.00
262;DHT22;114;48.260;10.988;2023-08-07T09:30:37;14.50;1.00
262;DHT22;114;48.260;10.988;2023-08-07T09:33:03;14.60;1.00
262;DHT22;114;48.260;10.988;2023-08-07T09:35:31;14.90;1.00
262;DHT22;114;48.260;10.988;2023-08-07T09:37:57;14.90;1.00
262;DHT22;114;48.260;10.988;2023-08-07T09:40:23;14.80;1.00
262;DHT22;114;48.260;10.988;2023-08-07T09:42:54;14.70;1.00
262;DHT22;114;48.260;10.988;2023-08-07T09:45:26;14.80;1.00
262;DHT22;114;48.260;10.988;2023-08-07T09:48:00;15.20;1.00
262;DHT22;114;48.260;10.988;2023-08-07T09:50:26;15.70;1.00
262;DHT22;114;48.260;10.988;2023-08-07T09:52:54;15.60;1.00
262;DHT22;114;48.260;10.988;2023-08-07T09:55:27;15.70;1.00
262;DHT22;114;48.260;10.988;2023-08-07T09:57:53;15.70;1.00
262;DHT22;114;48.260;10.988;2023-08-07T10:00:19;15.40;1.00
262;DHT22;114;48.260;10.988;2023-08-07T10:02:49;15.30;1.00
262;DHT22;114;48.260;10.988;2023-08-07T10:05:16;15.40;1.00
262;DHT22;114;48.260;10.988;2023-08-07T10:07:42;15.60;1.00
262;DHT22;114;48.260;10.988;2023-08-07T10:10:09;15.90;1.00
262;DHT22;114;48.260;10.988;2023-08-07T10:12:36;15.80;1.00
262;DHT22;114;48.260;10.988;2023-08-07T10:15:02;16.00;1.00
262;DHT22;114;48.260;10.988;2023-08-07T10:17:30;15.80;1.00
262;DHT22;114;48.260;10.988;2023-08-07T10:19:57;15.50;1.00
262;DHT22;114;48.260;10.988;2023-08-07T10:22:29;15.40;1.00
262;DHT22;114;48.260;10.988;2023-08-07T10:24:57;15.00;1.00
262;DHT22;114;48.260;10.988;2023-08-07T10:27:25;15.20;1.00
262;DHT22;114;48.260;10.988;2023-08-07T10:29:52;15.40;1.00
262;DHT22;114;48.260;10.988;2023-08-07T10:32:20;17.00;1.00
262;DHT22;114;48.260;10.988;2023-08-07T10:34:49;17.10;1.00
262;DHT22;114;48.260;10.988;2023-08-07T10:40:04;17.00;1.00
262;DHT22;114;48.260;10.988;2023-08-07T10:43:00;16.80;1.00
262;DHT22;114;48.260;10.988;2023-08-07T10:45:36;16.10;1.00
262;DHT22;114;48.260;10.988;2023-08-07T10:48:11;15.80;1.00
262;DHT22;114;48.260;10.988;2023-08-07T10:50:57;15.60;1.00
262;DHT22;114;48.260;10.988;2023-08-07T10:53:30;15.50;1.00
262;DHT22;114;48.260;10.988;2023-08-07T10:55:56;15.70;1.00
262;DHT22;114;48.260;10.988;2023-08-07T10:58:26;15.50;1.00
262;DHT22;114;48.260;10.988;2023-08-07T11:03:42;15.40;1.00
262;DHT22;114;48.260;10.988;2023-08-07T11:06:10;15.60;1.00
262;DHT22;114;48.260;10.988;2023-08-07T11:08:37;15.80;1.00
262;DHT22;114;48.260;10.988;2023-08-07T11:11:05;15.80;1.00
262;DHT22;114;48.260;10.988;2023-08-07T11:13:31;16.00;1.00
262;DHT22;114;48.260;10.988;2023-08-07T11:15:57;16.20;1.00
262;DHT22;114;48.260;10.988;2023-08-07T11:18:23;16.40;1.00
262;DHT22;114;48.260;10.988;2023-08-07T11:20:48;16.30;1.00
262;DHT22;114;48.260;10.988;2023-08-07T11:23:14;16.70;1.00
262;DHT22;114;48.260;10.988;2023-08-07T11:25:41;16.70;1.00
262;DHT22;114;48.260;10.988;2023-08-07T11:28:07;16.80;1.00
262;DHT22;114;48.260;10.988;2023-08-07T11:30:34;16.50;1.00
262;DHT22;114;48.260;10.988;2023-08-07T11:33:01;16.40;1.00
262;DHT22;114;48.260;10.988;2023-08-07T11:35:26;16.30;1.00
262;DHT22;114;48.260;10.988;2023-08-07T11:37:52;16.30;1.00
262;DHT22;114;48.260;10.988;2023-08-07T11:40:20;16.30;1.00
262;DHT22;114;48.260;10.988;2023-08-07T11:42:45;16.50;1.00
262;DHT22;114;48.260;10.988;2023-08-07T11:45:11;17.00;1.00
262;DHT22;114;48.260;10.988;2023-08-07T11:47:37;17.20;1.00
262;DHT22;114;48.260;10.988;2023-08-07T11:50:03;17.30;1.00
262;DHT22;114;48.260;10.988;2023-08-07T11:52:29;17.00;1.00
262;DHT22;114;48.260;10.988;2023-08-07T11:54:55;16.80;1.00
262;DHT22;114;48.260;10.988;2023-08-07T11:57:20;16.70;1.00
262;DHT22;114;48.260;10.988;2023-08-07T11:59:50;16.80;1.00
262;DHT22;114;48.260;10.988;2023-08-07T12:02:16;17.30;1.00
262;DHT22;114;48.260;10.988;2023-08-07T12:04:42;18.00;1.00
262;DHT22;114;48.260;10.988;2023-08-07T12:07:08;18.40;1.00
262;DHT22;114;48.260;10.988;2023-08-07T12:09:36;18.50;1.00
262;DHT22;114;48.260;10.988;2023-08-07T12:12:03;18.10;1.00
262;DHT22;114;48.260;10.988;2023-08-07T12:14:30;17.50;1.00
262;DHT22;114;48.260;10.988;2023-08-07T12:16:55;17.10;1.00
262;DHT22;114;48.260;10.988;2023-08-07T12:19:21;16.90;1.00
262;DHT22;114;48.260;10.988;2023-08-07T12:21:47;16.80;1.00
262;DHT22;114;48.260;10.988;2023-08-07T12:24:13;17.00;1.00
262;DHT22;114;48.260;10.988;2023-08-07T12:26:39;17.10;1.00
262;DHT22;114;48.260;10.988;2023-08-07T12:29:04;17.70;1.00
262;DHT22;114;48.260;10.988;2023-08-07T12:31:30;17.80;1.00
262;DHT22;114;48.260;10.988;2023-08-07T12:33:56;17.60;1.00
262;DHT22;114;48.260;10.988;2023-08-07T12:36:21;17.40;1.00
262;DHT22;114;48.260;10.988;2023-08-07T12:38:47;17.20;1.00
262;DHT22;114;48.260;10.988;2023-08-07T12:41:13;16.90;1.00
262;DHT22;114;48.260;10.988;2023-08-07T12:43:39;16.70;1.00
262;DHT22;114;48.260;10.988;2023-08-07T12:46:05;16.90;1.00
262;DHT22;114;48.260;10.988;2023-08-07T12:48:31;16.70;1.00
262;DHT22;114;48.260;10.988;2023-08-07T12:50:56;16.90;1.00
262;DHT22;114;48.260;10.988;2023-08-07T12:53:22;17.70;1.00
262;DHT22;114;48.260;10.988;2023-08-07T12:55:48;18.50;1.00
262;DHT22;114;48.260;10.988;2023-08-07T12:58:13;17.80;1.00
262;DHT22;114;48.260;10.988;2023-08-07T13:00:41;17.60;1.00
262;DHT22;114;48.260;10.988;2023-08-07T13:03:06;17.70;1.00
262;DHT22;114;48.260;10.988;2023-08-07T13:05:32;17.60;1.00
262;DHT22;114;48.260;10.988;2023-08-07T13:07:58;18.10;1.00
262;DHT22;114;48.260;10.988;2023-08-07T13:10:24;18.80;1.00
262;DHT22;114;48.260;10.988;2023-08-07T13:12:50;18.20;1.00
262;DHT22;114;48.260;10.988;2023-08-07T13:15:17;17.70;1.00
262;DHT22;114;48.260;10.988;2023-08-07T13:17:43;17.90;1.00
262;DHT22;114;48.260;10.988;2023-08-07T13:20:10;17.50;1.00
262;DHT22;114;48.260;10.988;2023-08-07T13:22:42;17.30;1.00
262;DHT22;114;48.260;10.988;2023-08-07T13:25:09;17.70;1.00
262;DHT22;114;48.260;10.988;2023-08-07T13:27:37;18.70;1.00
262;DHT22;114;48.260;10.988;2023-08-07T13:30:04;18.90;1.00
262;DHT22;114;48.260;10.988;2023-08-07T13:32:30;18.20;1.00
262;DHT22;114;48.260;10.988;2023-08-07T13:34:57;18.10;1.00
262;DHT22;114;48.260;10.988;2023-08-07T13:37:23;17.80;1.00
262;DHT22;114;48.260;10.988;2023-08-07T13:39:48;18.20;1.00
262;DHT22;114;48.260;10.988;2023-08-07T13:42:15;17.80;1.00
262;DHT22;114;48.260;10.988;2023-08-07T13:44:41;17.40;1.00
262;DHT22;114;48.260;10.988;2023-08-07T13:47:06;17.40;1.00
262;DHT22;114;48.260;10.988;2023-08-07T13:49:32;17.20;1.00
262;DHT22;114;48.260;10.988;2023-08-07T13:51:58;16.80;1.00
262;DHT22;114;48.260;10.988;2023-08-07T13:54:24;16.50;1.00
262;DHT22;114;48.260;10.988;2023-08-07T13:56:49;16.20;1.00
262;DHT22;114;48.260;10.988;2023-08-07T13:59:16;16.20;1.00
262;DHT22;114;48.260;10.988;2023-08-07T14:01:42;16.20;1.00
262;DHT22;114;48.260;10.988;2023-08-07T14:04:07;16.20;1.00
262;DHT22;114;48.260;10.988;2023-08-07T14:06:33;16.00;1.00
262;DHT22;114;48.260;10.988;2023-08-07T14:08:59;16.00;1.00
262;DHT22;114;48.260;10.988;2023-08-07T14:11:25;16.50;1.00
262;DHT22;114;48.260;10.988;2023-08-07T14:13:56;17.20;1.00
262;DHT22;114;48.260;10.988;2023-08-07T14:16:23;16.90;1.00
262;DHT22;114;48.260;10.988;2023-08-07T14:18:48;16.60;1.00
262;DHT22;114;48.260;10.988;2023-08-07T14:21:14;16.20;1.00
262;DHT22;114;48.260;10.988;2023-08-07T14:23:41;16.00;1.00
262;DHT22;114;48.260;10.988;2023-08-07T14:26:08;16.10;1.00
262;DHT22;114;48.260;10.988;2023-08-07T14:28:33;16.10;1.00
262;DHT22;114;48.260;10.988;2023-08-07T14:30:59;15.90;1.00
262;DHT22;114;48.260;10.988;2023-08-07T14:33:28;15.80;1.00
262;DHT22;114;48.260;10.988;2023-08-07T14:35:53;15.90;1.00
262;DHT22;114;48.260;10.988;2023-08-07T14:38:19;16.00;1.00
262;DHT22;114;48.260;10.988;2023-08-07T14:40:44;16.00;1.00
262;DHT22;114;48.260;10.988;2023-08-07T14:43:11;16.00;1.00
262;DHT22;114;48.260;10.988;2023-08-07T14:45:36;16.30;1.00
262;DHT22;114;48.260;10.988;2023-08-07T14:48:03;16.40;1.00
262;DHT22;114;48.260;10.988;2023-08-07T14:50:28;16.30;1.00
262;DHT22;114;48.260;10.988;2023-08-07T14:52:54;16.40;1.00
262;DHT22;114;48.260;10.988;2023-08-07T14:55:20;16.30;1.00
262;DHT22;114;48.260;10.988;2023-08-07T14:57:45;16.20;1.00
262;DHT22;114;48.260;10.988;2023-08-07T15:00:12;16.00;1.00
262;DHT22;114;48.260;10.988;2023-08-07T15:02:37;15.90;1.00
262;DHT22;114;48.260;10.988;2023-08-07T15:05:05;15.90;1.00
262;DHT22;114;48.260;10.988;2023-08-07T15:07:31;15.90;1.00
262;DHT22;114;48.260;10.988;2023-08-07T15:09:57;15.70;1.00
262;DHT22;114;48.260;10.988;2023-08-07T15:12:22;15.60;1.00
262;DHT22;114;48.260;10.988;2023-08-07T15:14:48;15.50;1.00
262;DHT22;114;48.260;10.988;2023-08-07T15:17:14;15.40;1.00
262;DHT22;114;48.260;10.988;2023-08-07T15:19:39;15.50;1.00
262;DHT22;114;48.260;10.988;2023-08-07T15:22:05;15.40;1.00
262;DHT22;114;48.260;10.988;2023-08-07T15:24:31;15.40;1.00
262;DHT22;114;48.260;10.988;2023-08-07T15:26:56;15.40;1.00
262;DHT22;114;48.260;10.988;2023-08-07T15:29:22;15.30;1.00
262;DHT22;114;48.260;10.988;2023-08-07T15:31:48;15.20;1.00
262;DHT22;114;48.260;10.988;2023-08-07T15:34:14;15.10;1.00
262;DHT22;114;48.260;10.988;2023-08-07T15:36:39;15.00;1.00
262;DHT22;114;48.260;10.988;2023-08-07T15:39:05;14.90;1.00
262;DHT22;114;48.260;10.988;2023-08-07T15:41:31;14.80;1.00
262;DHT22;114;48.260;10.988;2023-08-07T15:43:56;14.60;1.00
262;DHT22;114;48.260;10.988;2023-08-07T15:46:22;14.50;1.00
262;DHT22;114;48.260;10.988;2023-08-07T15:48:48;14.50;1.00
262;DHT22;114;48.260;10.988;2023-08-07T15:51:14;14.40;1.00
262;DHT22;114;48.260;10.988;2023-08-07T15:53:40;14.50;1.00
262;DHT22;114;48.260;10.988;2023-08-07T15:56:06;14.50;1.00
262;DHT22;114;48.260;10.988;2023-08-07T15:58:32;14.50;1.00
262;DHT22;114;48.260;10.988;2023-08-07T16:00:58;14.60;1.00
262;DHT22;114;48.260;10.988;2023-08-07T16:03:24;14.50;1.00
262;DHT22;114;48.260;10.988;2023-08-07T16:05:49;14.60;1.00
262;DHT22;114;48.260;10.988;2023-08-07T16:08:15;14.60;1.00
262;DHT22;114;48.260;10.988;2023-08-07T16:10:42;14.70;1.00
262;DHT22;114;48.260;10.988;2023-08-07T16:13:08;14.70;1.00
262;DHT22;114;48.260;10.988;2023-08-07T16:15:37;14.80;1.00
262;DHT22;114;48.260;10.988;2023-08-07T16:18:03;14.90;1.00
262;DHT22;114;48.260;10.988;2023-08-07T16:20:29;14.80;1.00
262;DHT22;114;48.260;10.988;2023-08-07T16:22:55;14.90;1.00
262;DHT22;114;48.260;10.988;2023-08-07T16:25:21;14.90;1.00
262;DHT22;114;48.260;10.988;2023-08-07T16:27:46;14.80;1.00
262;DHT22;114;48.260;10.988;2023-08-07T16:30:15;14.70;1.00
262;DHT22;114;48.260;10.988;2023-08-07T16:32:41;14.70;1.00
262;DHT22;114;48.260;10.988;2023-08-07T16:35:07;14.60;1.00
262;DHT22;114;48.260;10.988;2023-08-07T16:37:34;14.70;1.00
262;DHT22;114;48.260;10.988;2023-08-07T16:40:00;14.70;1.00